createdAt,value
2023-12-15T00:00:58.250Z,23.15
2023-12-15T00:01:58.252Z,23.15
2023-12-15T00:02:58.173Z,23.16
2023-12-15T00:03:58.194Z,23.16
2023-12-15T00:04:58.166Z,23.16
2023-12-15T00:05:59.030Z,23.16
2023-12-15T00:06:58.155Z,23.15
2023-12-15T00:56:17.803Z,22.91
2023-12-15T00:56:57.706Z,22.97
2023-12-15T00:57:57.696Z,23.03
2023-12-15T00:58:57.700Z,23.06
2023-12-15T00:59:57.669Z,23.08
2023-12-15T01:00:57.698Z,23.10
2023-12-15T01:01:57.700Z,23.10
2023-12-15T01:02:57.692Z,23.12
2023-12-15T01:03:57.641Z,23.12
2023-12-15T01:04:57.722Z,23.12
2023-12-15T01:05:57.680Z,23.12
2023-12-15T01:06:57.631Z,23.12
2023-12-15T01:07:57.608Z,23.12
2023-12-15T01:08:57.621Z,23.13
2023-12-15T01:09:57.593Z,23.13
2023-12-15T01:10:57.620Z,23.14
2023-12-15T01:11:57.611Z,23.13
2023-12-15T01:12:58.486Z,23.14
2023-12-15T01:13:57.633Z,23.14
2023-12-15T01:14:57.541Z,23.13
2023-12-15T01:15:57.537Z,23.13
2023-12-15T01:16:57.663Z,23.14
2023-12-15T01:17:58.122Z,23.15
2023-12-15T01:18:57.594Z,23.14
2023-12-15T01:19:57.554Z,23.14
2023-12-15T01:20:57.506Z,23.13
2023-12-15T01:21:57.480Z,23.14
2023-12-15T01:22:57.481Z,23.13
2023-12-15T01:23:57.471Z,23.13
2023-12-15T01:24:57.464Z,23.13
2023-12-15T01:25:57.457Z,23.14
2023-12-15T01:26:57.994Z,23.14
2023-12-15T01:27:57.452Z,23.14
2023-12-15T01:28:57.434Z,23.14
2023-12-15T01:29:57.407Z,23.14
2023-12-15T01:30:57.408Z,23.14
2023-12-15T01:31:57.399Z,23.13
2023-12-15T01:32:57.449Z,23.13
2023-12-15T01:33:57.403Z,23.12
2023-12-15T01:34:57.400Z,23.12
2023-12-15T01:35:57.361Z,23.14
2023-12-15T01:36:57.344Z,23.13
2023-12-15T01:37:57.388Z,23.13
2023-12-15T01:38:57.333Z,23.13
2023-12-15T01:39:57.320Z,23.13
2023-12-15T01:40:57.365Z,23.13
2023-12-15T01:41:57.306Z,23.13
2023-12-15T01:42:57.292Z,23.13
2023-12-15T01:43:57.376Z,23.14
2023-12-15T01:44:57.284Z,23.13
2023-12-15T01:46:05.105Z,23.13
2023-12-15T01:46:57.279Z,23.13
2023-12-15T01:47:57.459Z,23.13
2023-12-15T01:48:57.416Z,23.13
2023-12-15T01:49:57.264Z,23.13
2023-12-15T01:50:57.231Z,23.12
2023-12-15T01:51:57.214Z,23.12
2023-12-15T01:52:57.314Z,23.12
2023-12-15T01:53:57.196Z,23.13
2023-12-15T01:54:57.189Z,23.12
2023-12-15T01:55:57.250Z,23.13
2023-12-15T01:56:57.172Z,23.13
2023-12-15T01:57:57.192Z,23.13
2023-12-15T01:58:57.175Z,23.14
2023-12-15T01:59:57.177Z,23.13
2023-12-15T02:00:57.219Z,23.14
2023-12-15T02:01:57.168Z,23.14
2023-12-15T02:02:57.128Z,23.13
2023-12-15T02:03:57.151Z,23.13
2023-12-15T02:04:56.197Z,23.14
2023-12-15T02:05:57.176Z,23.13
2023-12-15T02:06:57.078Z,23.13
2023-12-15T02:07:57.140Z,23.13
2023-12-15T02:08:58.078Z,23.13
2023-12-15T02:09:57.059Z,23.14
2023-12-15T02:10:57.072Z,23.13
2023-12-15T02:11:57.045Z,23.14
2023-12-15T02:12:57.052Z,23.13
2023-12-15T02:13:57.078Z,23.13
2023-12-15T02:14:57.020Z,23.13
2023-12-15T02:15:57.057Z,23.13
2023-12-15T02:16:57.065Z,23.13
2023-12-15T02:17:56.152Z,23.12
2023-12-15T02:18:57.062Z,23.13
2023-12-15T02:19:57.040Z,23.12
2023-12-15T02:20:57.041Z,23.12
2023-12-15T02:21:57.583Z,23.13
2023-12-15T02:22:56.073Z,23.12
2023-12-15T02:23:57.514Z,23.12
2023-12-15T02:24:57.026Z,23.12
2023-12-15T02:25:57.075Z,23.12
2023-12-15T02:26:57.056Z,23.12
2023-12-15T02:27:57.049Z,23.13
2023-12-15T02:28:57.057Z,23.13
2023-12-15T02:29:56.024Z,23.12
2023-12-15T02:30:57.119Z,23.12
2023-12-15T02:31:57.264Z,23.14
2023-12-15T02:32:57.173Z,23.13
2023-12-15T02:33:57.098Z,23.14
2023-12-15T02:34:57.054Z,23.14
2023-12-15T02:35:57.048Z,23.14
2023-12-15T02:36:57.040Z,23.15
2023-12-15T02:37:57.115Z,23.14
2023-12-15T02:38:57.031Z,23.14
2023-12-15T02:39:57.039Z,23.13
2023-12-15T02:40:57.053Z,23.14
2023-12-15T02:41:56.042Z,23.15
2023-12-15T02:42:57.045Z,23.15
2023-12-15T02:43:57.086Z,23.13
2023-12-15T02:44:57.032Z,23.13
2023-12-15T02:45:57.050Z,23.12
2023-12-15T02:46:57.064Z,23.12
2023-12-15T02:47:57.136Z,23.12
2023-12-15T02:48:57.134Z,23.13
2023-12-15T02:49:57.075Z,23.12
2023-12-15T02:50:57.035Z,23.13
2023-12-15T02:51:57.041Z,23.13
2023-12-15T02:52:57.056Z,23.13
2023-12-15T02:53:57.050Z,23.13
2023-12-15T02:54:57.045Z,23.12
2023-12-15T02:55:57.097Z,23.12
2023-12-15T02:56:58.029Z,23.11
2023-12-15T02:57:56.662Z,23.11
2023-12-15T02:58:55.665Z,23.10
2023-12-15T02:59:56.613Z,23.11
2023-12-15T03:00:56.631Z,23.10
2023-12-15T03:01:56.632Z,23.11
2023-12-15T03:02:56.614Z,23.11
2023-12-15T03:03:56.618Z,23.12
2023-12-15T03:04:56.584Z,23.12
2023-12-15T03:05:56.588Z,23.12
2023-12-15T03:06:56.557Z,23.12
2023-12-15T03:07:56.564Z,23.12
2023-12-15T03:08:56.542Z,23.12
2023-12-15T03:09:56.555Z,23.12
2023-12-15T03:10:56.562Z,23.12
2023-12-15T03:11:55.510Z,23.12
2023-12-15T03:12:56.535Z,23.11
2023-12-15T03:13:56.558Z,23.10
2023-12-15T03:14:56.510Z,23.11
2023-12-15T03:15:56.481Z,23.11
2023-12-15T03:16:56.515Z,23.11
2023-12-15T03:17:56.559Z,23.12
2023-12-15T03:18:56.471Z,23.12
2023-12-15T03:19:56.485Z,23.11
2023-12-15T03:20:56.434Z,23.11
2023-12-15T03:21:56.423Z,23.12
2023-12-15T03:22:55.453Z,23.13
2023-12-15T03:23:56.418Z,23.13
2023-12-15T03:24:56.398Z,23.13
2023-12-15T03:25:56.425Z,23.13
2023-12-15T03:26:56.392Z,23.13
2023-12-15T03:27:56.374Z,23.14
2023-12-15T03:28:56.371Z,23.13
2023-12-15T03:29:56.058Z,23.12
2023-12-15T03:30:56.372Z,23.13
2023-12-15T03:31:56.376Z,23.13
2023-12-15T03:32:56.435Z,23.13
2023-12-15T03:33:56.387Z,23.12
2023-12-15T03:34:56.462Z,23.12
2023-12-15T03:35:56.329Z,23.11
2023-12-15T03:36:56.293Z,23.11
2023-12-15T03:37:56.313Z,23.12
2023-12-15T03:38:56.312Z,23.12
2023-12-15T03:39:56.268Z,23.12
2023-12-15T03:40:56.301Z,23.13
2023-12-15T03:41:56.245Z,23.12
2023-12-15T03:42:56.270Z,23.12
2023-12-15T03:43:56.310Z,23.13
2023-12-15T03:44:56.221Z,23.13
2023-12-15T03:45:55.217Z,23.13
2023-12-15T03:46:56.272Z,23.12
2023-12-15T03:47:56.326Z,23.12
2023-12-15T03:48:56.302Z,23.13
2023-12-15T03:49:56.190Z,23.12
2023-12-15T03:50:56.165Z,23.12
2023-12-15T03:51:56.182Z,23.12
2023-12-15T03:52:56.224Z,23.13
2023-12-15T03:53:56.158Z,23.12
2023-12-15T03:54:57.611Z,23.12
2023-12-15T03:55:56.271Z,23.12
2023-12-15T03:56:56.246Z,23.12
2023-12-15T03:57:56.257Z,23.12
2023-12-15T03:58:56.277Z,23.12
2023-12-15T03:59:56.214Z,23.12
2023-12-15T04:00:56.269Z,23.12
2023-12-15T04:01:56.234Z,23.12
2023-12-15T04:02:56.249Z,23.13
2023-12-15T04:03:56.178Z,23.12
2023-12-15T04:04:55.233Z,23.12
2023-12-15T04:05:56.249Z,23.12
2023-12-15T04:06:55.147Z,23.12
2023-12-15T04:07:56.242Z,23.11
2023-12-15T04:08:56.137Z,23.12
2023-12-15T04:09:56.134Z,23.12
2023-12-15T04:10:56.193Z,23.12
2023-12-15T04:11:56.116Z,23.12
2023-12-15T04:12:55.137Z,23.12
2023-12-15T04:13:56.179Z,23.11
2023-12-15T04:14:56.098Z,23.12
2023-12-15T04:15:57.774Z,23.12
2023-12-15T04:16:56.127Z,23.11
2023-12-15T04:17:56.297Z,23.11
2023-12-15T04:18:56.232Z,23.11
2023-12-15T04:19:56.247Z,23.11
2023-12-15T04:20:56.157Z,23.12
2023-12-15T04:21:56.105Z,23.11
2023-12-15T04:22:56.185Z,23.12
2023-12-15T04:23:56.124Z,23.12
2023-12-15T04:24:56.121Z,23.11
2023-12-15T04:25:56.129Z,23.12
2023-12-15T04:26:56.136Z,23.11
2023-12-15T04:27:56.110Z,23.12
2023-12-15T04:28:56.193Z,23.12
2023-12-15T04:29:56.105Z,23.12
2023-12-15T04:30:56.131Z,23.12
2023-12-15T04:31:56.133Z,23.12
2023-12-15T04:32:56.119Z,23.13
2023-12-15T04:33:56.106Z,23.13
2023-12-15T04:34:56.134Z,23.13
2023-12-15T04:35:56.112Z,23.12
2023-12-15T04:36:56.108Z,23.12
2023-12-15T04:37:56.116Z,23.13
2023-12-15T04:38:56.104Z,23.13
2023-12-15T04:39:56.127Z,23.13
2023-12-15T04:40:56.135Z,23.13
2023-12-15T04:41:56.100Z,23.13
2023-12-15T04:42:56.128Z,23.13
2023-12-15T04:43:56.128Z,23.12
2023-12-15T04:44:56.108Z,23.13
2023-12-15T04:45:54.814Z,23.12
2023-12-15T04:46:56.122Z,23.12
2023-12-15T04:47:56.241Z,23.12
2023-12-15T04:48:56.282Z,23.12
2023-12-15T04:49:56.129Z,23.12
2023-12-15T04:50:56.098Z,23.12
2023-12-15T04:51:54.755Z,23.12
2023-12-15T04:52:55.759Z,23.11
2023-12-15T04:53:55.736Z,23.11
2023-12-15T04:54:55.734Z,23.12
2023-12-15T04:55:55.820Z,23.12
2023-12-15T04:56:55.718Z,23.12
2023-12-15T04:57:55.705Z,23.12
2023-12-15T04:58:55.738Z,23.12
2023-12-15T04:59:55.682Z,23.13
2023-12-15T05:00:55.728Z,23.12
2023-12-15T05:01:55.701Z,23.11
2023-12-15T05:02:55.665Z,23.12
2023-12-15T05:03:55.722Z,23.11
2023-12-15T05:04:56.596Z,23.12
2023-12-15T05:05:55.853Z,23.12
2023-12-15T05:06:55.642Z,23.12
2023-12-15T05:07:55.687Z,23.11
2023-12-15T05:08:54.606Z,23.12
2023-12-15T05:09:55.637Z,23.13
2023-12-15T05:10:55.609Z,23.12
2023-12-15T05:11:55.615Z,23.12
2023-12-15T05:12:55.582Z,23.11
2023-12-15T05:13:55.565Z,23.12
2023-12-15T05:14:55.574Z,23.13
2023-12-15T05:15:55.543Z,23.13
2023-12-15T05:16:55.553Z,23.12
2023-12-15T05:17:55.677Z,23.12
2023-12-15T05:18:55.597Z,23.11
2023-12-15T05:19:55.544Z,23.12
2023-12-15T05:20:55.494Z,23.11
2023-12-15T05:21:54.494Z,23.10
2023-12-15T05:22:55.561Z,23.10
2023-12-15T05:23:55.472Z,23.10
2023-12-15T05:24:55.475Z,23.11
2023-12-15T05:25:55.474Z,23.11
2023-12-15T05:26:55.444Z,23.12
2023-12-15T05:27:55.468Z,23.11
2023-12-15T05:28:58.241Z,23.12
2023-12-15T05:29:55.436Z,23.12
2023-12-15T05:30:55.483Z,23.11
2023-12-15T05:31:55.457Z,23.12
2023-12-15T05:32:54.567Z,23.11
2023-12-15T05:33:55.434Z,23.12
2023-12-15T05:34:55.386Z,23.12
2023-12-15T05:35:55.401Z,23.11
2023-12-15T05:36:55.368Z,23.11
2023-12-15T05:37:55.423Z,23.11
2023-12-15T05:38:55.336Z,23.12
2023-12-15T05:39:55.344Z,23.12
2023-12-15T05:40:55.375Z,23.11
2023-12-15T05:41:55.308Z,23.12
2023-12-15T05:42:55.301Z,23.11
2023-12-15T05:43:55.319Z,23.11
2023-12-15T05:44:55.279Z,23.11
2023-12-15T05:45:55.276Z,23.11
2023-12-15T05:46:55.343Z,23.10
2023-12-15T05:47:55.468Z,23.11
2023-12-15T05:48:55.512Z,23.11
2023-12-15T05:49:55.372Z,23.11
2023-12-15T05:50:55.296Z,23.11
2023-12-15T05:51:55.219Z,23.11
2023-12-15T05:52:55.259Z,23.12
2023-12-15T05:53:58.261Z,23.12
2023-12-15T05:54:55.207Z,23.12
2023-12-15T05:55:55.217Z,23.11
2023-12-15T05:56:55.172Z,23.12
2023-12-15T05:57:55.176Z,23.11
2023-12-15T05:58:55.203Z,23.12
2023-12-15T05:59:55.188Z,23.12
2023-12-15T06:00:55.184Z,23.12
2023-12-15T06:01:55.199Z,23.13
2023-12-15T06:02:55.189Z,23.12
2023-12-15T06:03:55.121Z,23.12
2023-12-15T06:04:55.127Z,23.12
2023-12-15T06:05:55.176Z,23.12
2023-12-15T06:06:55.117Z,23.12
2023-12-15T06:07:55.154Z,23.12
2023-12-15T06:08:55.074Z,23.11
2023-12-15T06:09:55.078Z,23.11
2023-12-15T06:10:55.101Z,23.12
2023-12-15T06:11:55.041Z,23.12
2023-12-15T06:12:55.043Z,23.11
2023-12-15T06:13:55.048Z,23.10
2023-12-15T06:14:55.021Z,23.10
2023-12-15T06:15:55.037Z,23.10
2023-12-15T06:16:55.071Z,23.10
2023-12-15T06:17:55.142Z,23.10
2023-12-15T06:18:55.201Z,23.11
2023-12-15T06:19:55.019Z,23.10
2023-12-15T06:20:53.959Z,23.11
2023-12-15T06:21:53.952Z,23.10
2023-12-15T06:22:56.083Z,23.10
2023-12-15T06:23:54.937Z,23.10
2023-12-15T06:24:54.932Z,23.10
2023-12-15T06:25:54.966Z,23.10
2023-12-15T06:26:54.905Z,23.09
2023-12-15T06:27:54.902Z,23.10
2023-12-15T06:28:54.971Z,23.10
2023-12-15T06:29:54.881Z,23.10
2023-12-15T06:30:54.969Z,23.09
2023-12-15T06:31:54.948Z,23.09
2023-12-15T06:32:54.994Z,23.10
2023-12-15T06:33:54.771Z,23.09
2023-12-15T06:34:54.855Z,23.10
2023-12-15T06:35:54.831Z,23.10
2023-12-15T06:36:54.864Z,23.10
2023-12-15T06:37:54.832Z,23.11
2023-12-15T06:38:54.815Z,23.10
2023-12-15T06:39:55.138Z,23.08
2023-12-15T06:40:54.816Z,23.01
2023-12-15T06:41:58.130Z,22.90
2023-12-15T06:42:54.768Z,22.78
2023-12-15T06:43:53.763Z,22.64
2023-12-15T06:44:55.124Z,22.54
2023-12-15T06:45:55.119Z,22.42
2023-12-15T06:46:54.769Z,22.31
2023-12-15T06:47:55.080Z,22.21
2023-12-15T06:48:54.757Z,22.15
2023-12-15T06:49:54.654Z,22.14
2023-12-15T06:50:55.196Z,22.17
2023-12-15T06:51:56.753Z,22.23
2023-12-15T06:52:53.681Z,22.27
2023-12-15T06:53:55.249Z,22.32
2023-12-15T06:54:54.674Z,22.37
2023-12-15T06:55:55.225Z,22.42
2023-12-15T06:56:54.667Z,22.47
2023-12-15T06:57:55.217Z,22.52
2023-12-15T06:58:55.200Z,22.56
2023-12-15T06:59:55.620Z,22.60
2023-12-15T07:00:54.744Z,22.64
2023-12-15T07:01:54.702Z,22.67
2023-12-15T07:02:54.622Z,22.70
2023-12-15T07:04:03.163Z,22.73
2023-12-15T07:04:54.707Z,22.74
2023-12-15T07:05:55.764Z,22.76
2023-12-15T07:06:54.609Z,22.78
2023-12-15T07:07:54.621Z,22.81
2023-12-15T07:08:54.659Z,22.83
2023-12-15T07:09:54.564Z,22.84
2023-12-15T07:10:54.724Z,22.85
2023-12-15T07:11:54.525Z,22.87
2023-12-15T07:12:54.554Z,22.89
2023-12-15T07:13:54.556Z,22.89
2023-12-15T07:14:54.656Z,22.90
2023-12-15T07:15:55.525Z,22.90
2023-12-15T07:16:54.513Z,22.92
2023-12-15T07:17:55.553Z,22.93
2023-12-15T07:18:54.750Z,22.93
2023-12-15T07:19:54.523Z,22.93
2023-12-15T07:20:54.448Z,22.94
2023-12-15T07:21:54.569Z,22.95
2023-12-15T07:22:54.467Z,22.95
2023-12-15T07:23:54.651Z,22.94
2023-12-15T07:24:54.460Z,22.95
2023-12-15T07:25:54.466Z,22.95
2023-12-15T07:26:54.469Z,22.96
2023-12-15T07:27:54.445Z,22.97
2023-12-15T07:28:54.512Z,22.95
2023-12-15T07:29:54.657Z,22.95
2023-12-15T07:30:54.531Z,22.96
2023-12-15T07:31:54.497Z,22.96
2023-12-15T07:32:54.806Z,22.96
2023-12-15T07:33:54.764Z,22.96
2023-12-15T07:34:54.480Z,22.97
2023-12-15T07:35:54.604Z,22.97
2023-12-15T07:36:54.660Z,22.97
2023-12-15T07:37:54.451Z,22.98
2023-12-15T07:38:54.463Z,22.99
2023-12-15T07:39:54.531Z,22.98
2023-12-15T07:40:54.643Z,22.98
2023-12-15T07:41:55.476Z,22.98
2023-12-15T07:42:55.477Z,22.99
2023-12-15T07:43:54.701Z,23.00
2023-12-15T07:44:54.478Z,23.00
2023-12-15T07:45:54.438Z,23.00
2023-12-15T07:46:54.436Z,23.00
2023-12-15T07:47:53.677Z,22.99
2023-12-15T07:48:54.759Z,23.00
2023-12-15T07:49:54.441Z,23.00
2023-12-15T07:50:55.569Z,23.01
2023-12-15T07:51:54.470Z,23.00
2023-12-15T07:52:54.502Z,23.01
2023-12-15T07:53:54.651Z,23.01
2023-12-15T07:54:53.509Z,23.01
2023-12-15T07:55:54.518Z,23.02
2023-12-15T07:56:54.503Z,23.01
2023-12-15T07:57:54.513Z,23.01
2023-12-15T07:58:54.647Z,23.02
2023-12-15T07:59:54.454Z,23.02
2023-12-15T08:00:54.462Z,23.03
2023-12-15T08:01:54.526Z,23.03
2023-12-15T08:02:54.626Z,23.02
2023-12-15T08:03:54.452Z,23.03
2023-12-15T08:04:54.438Z,23.03
2023-12-15T08:05:54.496Z,23.02
2023-12-15T08:06:54.437Z,23.03
2023-12-15T08:07:54.478Z,23.03
2023-12-15T08:08:54.655Z,23.03
2023-12-15T08:09:54.231Z,23.04
2023-12-15T08:10:54.498Z,23.03
2023-12-15T08:11:54.057Z,23.03
2023-12-15T08:12:54.081Z,23.04
2023-12-15T08:13:54.512Z,23.02
2023-12-15T08:14:54.025Z,23.03
2023-12-15T08:15:54.012Z,23.03
2023-12-15T08:16:54.442Z,23.04
2023-12-15T08:17:54.321Z,23.03
2023-12-15T08:18:55.061Z,23.04
2023-12-15T08:19:53.984Z,23.04
2023-12-15T08:20:54.442Z,23.04
2023-12-15T08:21:53.998Z,23.05
2023-12-15T08:22:53.950Z,23.05
2023-12-15T08:23:54.481Z,23.05
2023-12-15T08:24:53.942Z,23.05
2023-12-15T08:25:54.444Z,23.06
2023-12-15T08:26:53.936Z,23.05
2023-12-15T08:27:53.988Z,23.04
2023-12-15T08:28:54.445Z,23.04
2023-12-15T08:29:54.662Z,23.05
2023-12-15T08:30:54.049Z,23.04
2023-12-15T08:31:53.947Z,23.04
2023-12-15T08:32:54.296Z,23.05
2023-12-15T08:33:54.331Z,23.05
2023-12-15T08:34:53.844Z,23.05
2023-12-15T08:35:53.849Z,23.06
2023-12-15T08:36:53.834Z,23.06
2023-12-15T08:37:53.859Z,23.06
2023-12-15T08:38:54.169Z,23.06
2023-12-15T08:39:53.837Z,23.06
2023-12-15T08:40:53.817Z,23.06
2023-12-15T08:41:53.785Z,23.07
2023-12-15T08:42:54.190Z,23.06
2023-12-15T08:43:53.782Z,23.06
2023-12-15T08:44:57.028Z,23.05
2023-12-15T08:45:53.754Z,23.06
2023-12-15T08:46:53.771Z,23.06
2023-12-15T08:47:54.793Z,23.06
2023-12-15T08:48:53.921Z,23.06
2023-12-15T08:49:53.765Z,23.07
2023-12-15T08:50:54.673Z,23.07
2023-12-15T08:51:54.177Z,23.08
2023-12-15T08:52:53.681Z,23.07
2023-12-15T08:53:54.172Z,23.07
2023-12-15T08:54:53.676Z,23.08
2023-12-15T08:55:53.688Z,23.08
2023-12-15T08:56:53.724Z,23.08
2023-12-15T08:57:53.644Z,23.08
2023-12-15T08:58:53.632Z,23.08
2023-12-15T08:59:53.619Z,23.07
2023-12-15T09:00:53.627Z,23.07
2023-12-15T09:01:54.161Z,23.08
2023-12-15T09:02:54.040Z,23.09
2023-12-15T09:03:53.694Z,23.10
2023-12-15T09:05:01.850Z,23.10
2023-12-15T09:06:16.409Z,23.10
2023-12-15T09:06:53.838Z,23.10
2023-12-15T09:07:53.629Z,23.10
2023-12-15T09:08:53.875Z,23.10
2023-12-15T09:09:53.541Z,23.10
2023-12-15T09:10:54.237Z,23.11
2023-12-15T09:11:53.569Z,23.11
2023-12-15T09:12:53.562Z,23.11
2023-12-15T09:13:53.682Z,23.11
2023-12-15T09:14:53.555Z,23.11
2023-12-15T09:15:53.585Z,23.11
2023-12-15T09:16:53.564Z,23.11
2023-12-15T09:17:53.820Z,23.11
2023-12-15T09:18:53.623Z,23.11
2023-12-15T09:19:53.577Z,23.12
2023-12-15T09:20:53.560Z,23.12
2023-12-15T09:21:53.689Z,23.12
2023-12-15T09:22:53.563Z,23.11
2023-12-15T09:23:53.575Z,23.11
2023-12-15T09:24:53.573Z,23.11
2023-12-15T09:25:54.327Z,23.12
2023-12-15T09:26:53.570Z,23.11
2023-12-15T09:27:53.590Z,23.12
2023-12-15T09:28:53.573Z,23.11
2023-12-15T09:29:53.563Z,23.11
2023-12-15T09:30:53.596Z,23.11
2023-12-15T09:31:53.590Z,23.11
2023-12-15T09:32:53.738Z,23.11
2023-12-15T09:33:53.739Z,23.10
2023-12-15T09:34:54.181Z,23.11
2023-12-15T09:35:53.570Z,23.11
2023-12-15T09:36:53.527Z,23.11
2023-12-15T09:37:53.507Z,23.11
2023-12-15T09:38:53.691Z,23.11
2023-12-15T09:39:53.504Z,23.11
2023-12-15T09:40:53.513Z,23.11
2023-12-15T09:41:53.513Z,23.11
2023-12-15T09:42:53.328Z,23.11
2023-12-15T09:43:53.713Z,23.12
2023-12-15T09:45:04.294Z,23.12
2023-12-15T09:45:53.566Z,23.11
2023-12-15T09:46:53.579Z,23.12
2023-12-15T09:47:53.761Z,23.15
2023-12-15T09:48:53.726Z,23.16
2023-12-15T09:49:53.503Z,23.16
2023-12-15T09:50:53.631Z,23.14
2023-12-15T09:51:52.697Z,23.16
2023-12-15T09:52:53.510Z,23.17
2023-12-15T09:53:53.728Z,23.17
2023-12-15T09:54:53.731Z,23.18
2023-12-15T09:55:53.547Z,23.18
2023-12-15T09:56:53.571Z,23.19
2023-12-15T09:57:53.472Z,23.19
2023-12-15T09:58:52.307Z,23.20
2023-12-15T09:59:53.571Z,23.20
2023-12-15T10:00:53.164Z,23.22
2023-12-15T10:01:53.098Z,23.23
2023-12-15T10:02:53.205Z,23.22
2023-12-15T10:03:53.106Z,23.23
2023-12-15T10:04:53.546Z,23.22
2023-12-15T10:05:53.161Z,23.22
2023-12-15T10:06:52.369Z,23.20
2023-12-15T10:07:53.108Z,23.20
2023-12-15T10:09:01.309Z,23.19
2023-12-15T10:09:53.087Z,23.19
2023-12-15T10:10:53.424Z,23.19
2023-12-15T10:11:53.080Z,23.19
2023-12-15T10:12:53.072Z,23.18
2023-12-15T10:13:53.059Z,23.18
2023-12-15T10:14:53.034Z,23.18
2023-12-15T10:15:53.558Z,23.18
2023-12-15T10:16:53.008Z,23.17
2023-12-15T10:17:53.043Z,23.16
2023-12-15T10:18:53.084Z,23.15
2023-12-15T10:19:53.034Z,23.15
2023-12-15T10:20:53.086Z,23.14
2023-12-15T10:21:53.526Z,23.15
2023-12-15T10:22:52.975Z,23.14
2023-12-15T10:23:54.927Z,23.12
2023-12-15T10:24:53.516Z,23.12
2023-12-15T10:25:52.921Z,23.11
2023-12-15T10:26:52.937Z,23.11
2023-12-15T10:27:53.911Z,23.12
2023-12-15T10:28:53.590Z,23.12
2023-12-15T10:29:52.890Z,23.12
2023-12-15T10:30:53.957Z,23.13
2023-12-15T10:31:53.548Z,23.13
2023-12-15T10:32:53.054Z,23.14
2023-12-15T10:33:52.883Z,23.14
2023-12-15T10:34:52.862Z,23.13
2023-12-15T10:35:52.890Z,23.13
2023-12-15T10:36:53.516Z,23.13
2023-12-15T10:37:52.815Z,23.14
2023-12-15T10:38:52.804Z,23.14
2023-12-15T10:39:52.788Z,23.15
2023-12-15T10:40:52.785Z,23.16
2023-12-15T10:41:52.791Z,23.17
2023-12-15T10:42:54.526Z,23.18
2023-12-15T10:43:54.698Z,23.18
2023-12-15T10:44:53.506Z,23.19
2023-12-15T10:45:53.509Z,23.20
2023-12-15T10:46:52.307Z,23.20
2023-12-15T10:47:53.849Z,23.21
2023-12-15T10:48:53.601Z,23.22
2023-12-15T10:49:53.749Z,23.22
2023-12-15T10:50:53.515Z,23.22
2023-12-15T10:51:53.498Z,23.23
2023-12-15T10:52:53.724Z,23.21
2023-12-15T10:53:53.511Z,23.11
2023-12-15T10:54:53.509Z,22.95
2023-12-15T10:55:53.461Z,22.77
2023-12-15T10:56:53.573Z,22.55
2023-12-15T10:57:53.095Z,22.43
2023-12-15T10:58:53.076Z,22.38
2023-12-15T10:59:53.069Z,22.37
2023-12-15T11:00:53.275Z,22.40
2023-12-15T11:01:53.067Z,22.44
2023-12-15T11:02:53.048Z,22.49
2023-12-15T11:03:53.061Z,22.55
2023-12-15T11:04:53.030Z,22.61
2023-12-15T11:05:53.130Z,22.68
2023-12-15T11:06:53.027Z,22.72
2023-12-15T11:07:52.997Z,22.42
2023-12-15T11:08:52.994Z,21.81
2023-12-15T11:09:53.977Z,20.85
2023-12-15T11:10:53.033Z,20.39
2023-12-15T11:11:53.133Z,19.88
2023-12-15T11:12:52.963Z,19.49
2023-12-15T11:13:52.943Z,19.15
2023-12-15T11:14:53.226Z,18.94
2023-12-15T11:15:52.927Z,18.75
2023-12-15T11:16:52.976Z,18.74
2023-12-15T11:17:53.361Z,18.55
2023-12-15T11:18:53.137Z,18.08
2023-12-15T11:19:52.944Z,17.90
2023-12-15T11:20:52.951Z,17.78
2023-12-15T11:21:51.880Z,17.64
2023-12-15T11:22:52.344Z,17.61
2023-12-15T11:23:52.870Z,17.61
2023-12-15T11:24:52.844Z,17.56
2023-12-15T11:25:52.851Z,17.56
2023-12-15T11:26:52.826Z,17.53
2023-12-15T11:27:53.236Z,17.48
2023-12-15T11:28:52.811Z,17.41
2023-12-15T11:29:52.802Z,17.36
2023-12-15T11:30:52.980Z,17.34
2023-12-15T11:31:52.801Z,17.25
2023-12-15T11:32:53.297Z,17.17
2023-12-15T11:33:53.321Z,17.06
2023-12-15T11:34:52.769Z,17.00
2023-12-15T11:35:52.792Z,16.93
2023-12-15T11:36:52.834Z,16.78
2023-12-15T11:37:53.228Z,16.69
2023-12-15T11:38:52.739Z,16.65
2023-12-15T11:39:52.717Z,16.57
2023-12-15T11:40:52.717Z,16.53
2023-12-15T11:41:52.687Z,16.48
2023-12-15T11:42:52.733Z,16.49
2023-12-15T11:43:52.670Z,16.45
2023-12-15T11:44:52.661Z,16.39
2023-12-15T11:45:52.665Z,16.41
2023-12-15T11:46:52.652Z,16.44
2023-12-15T11:47:53.782Z,16.44
2023-12-15T11:48:52.721Z,16.52
2023-12-15T11:49:52.627Z,16.63
2023-12-15T11:50:52.705Z,16.67
2023-12-15T11:51:52.688Z,16.64
2023-12-15T11:52:52.621Z,16.63
2023-12-15T11:53:52.732Z,16.65
2023-12-15T11:54:52.579Z,16.68
2023-12-15T11:55:52.582Z,16.64
2023-12-15T11:56:52.601Z,16.60
2023-12-15T11:57:52.556Z,16.48
2023-12-15T11:58:52.545Z,16.37
2023-12-15T11:59:52.543Z,16.39
2023-12-15T12:00:52.554Z,16.34
2023-12-15T12:01:52.514Z,16.38
2023-12-15T12:02:52.506Z,16.39
2023-12-15T12:03:52.509Z,16.46
2023-12-15T12:04:55.228Z,16.51
2023-12-15T12:05:52.615Z,16.55
2023-12-15T12:06:52.460Z,16.61
2023-12-15T12:07:52.490Z,16.66
2023-12-15T12:08:52.745Z,16.72
2023-12-15T12:09:52.449Z,16.75
2023-12-15T12:10:52.435Z,16.77
2023-12-15T12:11:52.522Z,16.80
2023-12-15T12:12:52.427Z,16.79
2023-12-15T12:13:52.408Z,16.80
2023-12-15T12:14:52.432Z,16.78
2023-12-15T12:15:52.436Z,16.71
2023-12-15T12:16:52.402Z,16.63
2023-12-15T12:17:52.507Z,16.57
2023-12-15T12:18:52.295Z,16.49
2023-12-15T12:19:52.359Z,16.40
2023-12-15T12:20:52.341Z,16.29
2023-12-15T12:21:52.338Z,16.19
2023-12-15T12:22:52.324Z,16.15
2023-12-15T12:23:52.390Z,16.09
2023-12-15T12:24:52.327Z,16.01
2023-12-15T12:25:55.283Z,15.92
2023-12-15T12:26:53.665Z,15.85
2023-12-15T12:27:52.293Z,15.83
2023-12-15T12:28:53.952Z,15.82
2023-12-15T12:29:52.262Z,15.81
2023-12-15T12:30:52.450Z,15.83
2023-12-15T12:31:52.263Z,15.84
2023-12-15T12:32:52.319Z,15.88
2023-12-15T12:33:52.550Z,15.90
2023-12-15T12:34:53.641Z,15.92
2023-12-15T12:35:52.428Z,15.90
2023-12-15T12:36:55.252Z,15.93
2023-12-15T12:37:52.425Z,15.96
2023-12-15T12:38:52.408Z,15.95
2023-12-15T12:39:52.781Z,15.88
2023-12-15T12:40:53.456Z,15.87
2023-12-15T12:41:52.447Z,15.92
2023-12-15T12:42:53.243Z,15.93
2023-12-15T12:43:52.377Z,15.96
2023-12-15T12:44:52.330Z,15.91
2023-12-15T12:45:53.273Z,15.86
2023-12-15T12:46:52.394Z,15.83
2023-12-15T12:47:52.400Z,15.77
2023-12-15T12:48:52.340Z,15.70
2023-12-15T12:49:53.054Z,15.66
2023-12-15T12:50:52.306Z,15.65
2023-12-15T12:51:52.250Z,15.64
2023-12-15T12:52:53.877Z,15.61
2023-12-15T12:53:52.283Z,15.57
2023-12-15T12:54:52.304Z,15.48
2023-12-15T12:55:52.307Z,15.39
2023-12-15T12:56:59.998Z,15.36
2023-12-15T12:57:52.212Z,15.24
2023-12-15T12:58:52.191Z,15.16
2023-12-15T12:59:52.206Z,15.16
2023-12-15T13:00:52.242Z,15.17
2023-12-15T13:01:52.503Z,15.20
2023-12-15T13:02:52.290Z,15.25
2023-12-15T13:03:52.191Z,15.30
2023-12-15T13:04:52.139Z,15.35
2023-12-15T13:05:52.404Z,15.39
2023-12-15T13:06:52.185Z,15.40
2023-12-15T13:07:52.255Z,15.36
2023-12-15T13:08:52.162Z,15.34
2023-12-15T13:09:52.092Z,15.36
2023-12-15T13:10:52.073Z,15.37
2023-12-15T13:11:52.296Z,15.37
2023-12-15T13:12:52.064Z,15.38
2023-12-15T13:13:52.067Z,15.40
2023-12-15T13:14:52.044Z,15.42
2023-12-15T13:15:52.268Z,15.43
2023-12-15T13:16:52.028Z,15.46
2023-12-15T13:17:52.076Z,15.43
2023-12-15T13:18:52.089Z,15.44
2023-12-15T13:19:52.000Z,15.44
2023-12-15T13:20:52.144Z,15.38
2023-12-15T13:21:51.981Z,15.35
2023-12-15T13:22:52.321Z,15.31
2023-12-15T13:23:52.059Z,15.26
2023-12-15T13:24:57.821Z,15.26
2023-12-15T13:25:51.956Z,15.25
2023-12-15T13:26:52.270Z,15.19
2023-12-15T13:27:51.951Z,15.13
2023-12-15T13:28:54.751Z,15.11
2023-12-15T13:29:51.932Z,15.11
2023-12-15T13:30:51.934Z,15.13
2023-12-15T13:31:51.891Z,15.16
2023-12-15T13:32:52.046Z,15.16
2023-12-15T13:33:52.020Z,15.17
2023-12-15T13:34:51.906Z,15.18
2023-12-15T13:35:59.197Z,15.16
2023-12-15T13:36:52.750Z,15.08
2023-12-15T13:37:52.754Z,15.00
2023-12-15T13:38:52.398Z,14.96
2023-12-15T13:39:52.267Z,14.91
2023-12-15T13:40:51.868Z,14.91